Anatone, Washington
Current Conditions -  °F | °C
As of 9:56 PM on Sunday 19 Oct 2014 (Local Time) from KLWS Reporting Station
Clear Clear  
Wind Chill: 60°   Ceiling: Unl
Heat Index: 60°   Visibility: 10mi
Dew Point: 42°   Wind: 3mph
Humidity: 51%   Direction: 170°S
Pressure: 29.75"   Gusts: NA
Location:  46.13°N, 117.13°W
Report Text: KLWS 200456Z 17003KT 10SM CLR 16/06 A2975 RMK AO2 SLP073 T01560056 $
Loading
Personal Weather Stations






























Interactive Weather Map
Tropical Storm Tracking
New forecast layout! Learn more

10-Day Weather Forecast

Advertisements
Track Severe Weather on mobile